sensor_id;sensor_type;location;lat;lon;timestamp;temperature;humidity
39021;DHT22;25188;51.958;5.842;2023-08-17T00:00:15;19.90;81.10
39021;DHT22;25188;51.958;5.842;2023-08-17T00:02:43;19.90;81.00
39021;DHT22;25188;51.958;5.842;2023-08-17T00:05:09;19.90;81.60
39021;DHT22;25188;51.958;5.842;2023-08-17T00:07:35;19.90;81.00
39021;DHT22;25188;51.958;5.842;2023-08-17T00:10:00;19.90;81.00
39021;DHT22;25188;51.958;5.842;2023-08-17T00:12:26;19.90;80.80
39021;DHT22;25188;51.958;5.842;2023-08-17T00:14:52;19.90;81.00
39021;DHT22;25188;51.958;5.842;2023-08-17T00:17:18;19.90;80.90
39021;DHT22;25188;51.958;5.842;2023-08-17T00:19:44;19.90;80.80
39021;DHT22;25188;51.958;5.842;2023-08-17T00:22:10;19.90;80.60
39021;DHT22;25188;51.958;5.842;2023-08-17T00:24:35;19.90;80.60
39021;DHT22;25188;51.958;5.842;2023-08-17T00:27:01;19.90;80.80
39021;DHT22;25188;51.958;5.842;2023-08-17T00:29:27;19.90;81.10
39021;DHT22;25188;51.958;5.842;2023-08-17T00:31:52;19.90;81.00
39021;DHT22;25188;51.958;5.842;2023-08-17T00:34:18;19.90;81.30
39021;DHT22;25188;51.958;5.842;2023-08-17T00:36:44;19.80;81.40
39021;DHT22;25188;51.958;5.842;2023-08-17T00:39:10;19.80;81.80
39021;DHT22;25188;51.958;5.842;2023-08-17T00:41:36;19.80;82.10
39021;DHT22;25188;51.958;5.842;2023-08-17T00:44:01;19.80;82.20
39021;DHT22;25188;51.958;5.842;2023-08-17T00:46:27;19.70;82.00
39021;DHT22;25188;51.958;5.842;2023-08-17T00:48:55;19.70;82.50
39021;DHT22;25188;51.958;5.842;2023-08-17T00:51:22;19.70;82.70
39021;DHT22;25188;51.958;5.842;2023-08-17T00:53:53;19.60;83.20
39021;DHT22;25188;51.958;5.842;2023-08-17T00:56:20;19.60;83.50
39021;DHT22;25188;51.958;5.842;2023-08-17T00:58:46;19.50;83.30
39021;DHT22;25188;51.958;5.842;2023-08-17T01:01:12;19.50;83.50
39021;DHT22;25188;51.958;5.842;2023-08-17T01:03:39;19.50;84.40
39021;DHT22;25188;51.958;5.842;2023-08-17T01:06:07;19.40;84.80
39021;DHT22;25188;51.958;5.842;2023-08-17T01:08:33;19.40;84.90
39021;DHT22;25188;51.958;5.842;2023-08-17T01:11:05;19.30;85.50
39021;DHT22;25188;51.958;5.842;2023-08-17T01:13:43;19.30;85.00
39021;DHT22;25188;51.958;5.842;2023-08-17T01:16:15;19.30;85.30
39021;DHT22;25188;51.958;5.842;2023-08-17T01:18:42;19.30;85.20
39021;DHT22;25188;51.958;5.842;2023-08-17T01:21:10;19.30;85.40
39021;DHT22;25188;51.958;5.842;2023-08-17T01:23:39;19.30;85.60
39021;DHT22;25188;51.958;5.842;2023-08-17T01:26:04;19.20;85.80
39021;DHT22;25188;51.958;5.842;2023-08-17T01:28:30;19.20;85.80
39021;DHT22;25188;51.958;5.842;2023-08-17T01:31:00;19.20;85.90
39021;DHT22;25188;51.958;5.842;2023-08-17T01:33:34;19.10;85.90
39021;DHT22;25188;51.958;5.842;2023-08-17T01:36:01;19.10;86.00
39021;DHT22;25188;51.958;5.842;2023-08-17T01:38:29;19.10;86.30
39021;DHT22;25188;51.958;5.842;2023-08-17T01:40:57;19.10;86.00
39021;DHT22;25188;51.958;5.842;2023-08-17T01:43:24;19.00;86.30
39021;DHT22;25188;51.958;5.842;2023-08-17T01:45:50;19.00;86.20
39021;DHT22;25188;51.958;5.842;2023-08-17T01:48:15;19.00;86.40
39021;DHT22;25188;51.958;5.842;2023-08-17T01:50:41;19.00;86.60
39021;DHT22;25188;51.958;5.842;2023-08-17T01:53:07;19.00;86.80
39021;DHT22;25188;51.958;5.842;2023-08-17T01:55:33;19.00;86.60
39021;DHT22;25188;51.958;5.842;2023-08-17T01:58:01;18.90;86.70
39021;DHT22;25188;51.958;5.842;2023-08-17T02:00:26;18.90;86.80
39021;DHT22;25188;51.958;5.842;2023-08-17T02:02:52;18.90;87.00
39021;DHT22;25188;51.958;5.842;2023-08-17T02:05:17;18.90;87.10
39021;DHT22;25188;51.958;5.842;2023-08-17T02:07:43;18.90;87.20
39021;DHT22;25188;51.958;5.842;2023-08-17T02:10:09;18.90;87.20
39021;DHT22;25188;51.958;5.842;2023-08-17T02:12:35;18.80;87.20
39021;DHT22;25188;51.958;5.842;2023-08-17T02:15:00;18.80;87.40
39021;DHT22;25188;51.958;5.842;2023-08-17T02:17:26;18.80;87.20
39021;DHT22;25188;51.958;5.842;2023-08-17T02:19:52;18.80;87.50
39021;DHT22;25188;51.958;5.842;2023-08-17T02:22:18;18.70;87.30
39021;DHT22;25188;51.958;5.842;2023-08-17T02:24:43;18.70;87.40
39021;DHT22;25188;51.958;5.842;2023-08-17T02:27:09;18.70;87.60
39021;DHT22;25188;51.958;5.842;2023-08-17T02:29:35;18.60;87.40
39021;DHT22;25188;51.958;5.842;2023-08-17T02:32:00;18.60;87.60
39021;DHT22;25188;51.958;5.842;2023-08-17T02:34:26;18.60;87.60
39021;DHT22;25188;51.958;5.842;2023-08-17T02:36:52;18.60;87.60
39021;DHT22;25188;51.958;5.842;2023-08-17T02:39:17;18.60;87.60
39021;DHT22;25188;51.958;5.842;2023-08-17T02:41:43;18.60;87.80
39021;DHT22;25188;51.958;5.842;2023-08-17T02:44:10;18.60;87.70
39021;DHT22;25188;51.958;5.842;2023-08-17T02:46:36;18.60;87.60
39021;DHT22;25188;51.958;5.842;2023-08-17T02:49:02;18.60;87.80
39021;DHT22;25188;51.958;5.842;2023-08-17T02:51:27;18.60;87.50
39021;DHT22;25188;51.958;5.842;2023-08-17T02:53:53;18.60;87.70
39021;DHT22;25188;51.958;5.842;2023-08-17T02:56:19;18.50;87.70
39021;DHT22;25188;51.958;5.842;2023-08-17T02:58:45;18.50;87.50
39021;DHT22;25188;51.958;5.842;2023-08-17T03:01:10;18.50;87.40
39021;DHT22;25188;51.958;5.842;2023-08-17T03:03:36;18.50;87.50
39021;DHT22;25188;51.958;5.842;2023-08-17T03:06:03;18.50;87.50
39021;DHT22;25188;51.958;5.842;2023-08-17T03:08:28;18.40;87.50
39021;DHT22;25188;51.958;5.842;2023-08-17T03:10:54;18.40;87.60
39021;DHT22;25188;51.958;5.842;2023-08-17T03:13:20;18.40;87.40
39021;DHT22;25188;51.958;5.842;2023-08-17T03:15:45;18.40;87.40
39021;DHT22;25188;51.958;5.842;2023-08-17T03:18:11;18.40;87.50
39021;DHT22;25188;51.958;5.842;2023-08-17T03:20:37;18.40;87.50
39021;DHT22;25188;51.958;5.842;2023-08-17T03:23:02;18.40;87.50
39021;DHT22;25188;51.958;5.842;2023-08-17T03:25:31;18.40;87.50
39021;DHT22;25188;51.958;5.842;2023-08-17T03:27:57;18.40;87.80
39021;DHT22;25188;51.958;5.842;2023-08-17T03:30:23;18.40;87.80
39021;DHT22;25188;51.958;5.842;2023-08-17T03:32:48;18.30;87.80
39021;DHT22;25188;51.958;5.842;2023-08-17T03:35:14;18.30;87.80
39021;DHT22;25188;51.958;5.842;2023-08-17T03:37:39;18.20;87.70
39021;DHT22;25188;51.958;5.842;2023-08-17T03:40:06;18.30;88.00
39021;DHT22;25188;51.958;5.842;2023-08-17T03:42:31;18.20;87.90
39021;DHT22;25188;51.958;5.842;2023-08-17T03:44:57;18.10;88.00
39021;DHT22;25188;51.958;5.842;2023-08-17T03:47:22;18.10;87.80
39021;DHT22;25188;51.958;5.842;2023-08-17T03:49:48;18.00;88.40
39021;DHT22;25188;51.958;5.842;2023-08-17T03:52:14;18.00;88.30
39021;DHT22;25188;51.958;5.842;2023-08-17T03:54:39;17.90;88.70
39021;DHT22;25188;51.958;5.842;2023-08-17T03:57:05;17.90;88.40
39021;DHT22;25188;51.958;5.842;2023-08-17T03:59:31;17.80;88.50
39021;DHT22;25188;51.958;5.842;2023-08-17T04:01:57;17.80;88.80
39021;DHT22;25188;51.958;5.842;2023-08-17T04:04:22;17.80;89.20
39021;DHT22;25188;51.958;5.842;2023-08-17T04:06:48;17.70;88.90
39021;DHT22;25188;51.958;5.842;2023-08-17T04:09:13;17.70;89.10
39021;DHT22;25188;51.958;5.842;2023-08-17T04:11:39;17.70;89.20
39021;DHT22;25188;51.958;5.842;2023-08-17T04:14:05;17.60;89.40
39021;DHT22;25188;51.958;5.842;2023-08-17T04:16:31;17.60;89.50
39021;DHT22;25188;51.958;5.842;2023-08-17T04:18:57;17.60;89.50
39021;DHT22;25188;51.958;5.842;2023-08-17T04:21:22;17.50;89.60
39021;DHT22;25188;51.958;5.842;2023-08-17T04:23:48;17.50;89.80
39021;DHT22;25188;51.958;5.842;2023-08-17T04:26:14;17.50;89.70
39021;DHT22;25188;51.958;5.842;2023-08-17T04:28:39;17.40;89.70
39021;DHT22;25188;51.958;5.842;2023-08-17T04:31:05;17.40;90.20
39021;DHT22;25188;51.958;5.842;2023-08-17T04:33:31;17.40;90.00
39021;DHT22;25188;51.958;5.842;2023-08-17T04:35:57;17.40;90.00
39021;DHT22;25188;51.958;5.842;2023-08-17T04:38:25;17.40;90.20
39021;DHT22;25188;51.958;5.842;2023-08-17T04:40:50;17.40;90.50
39021;DHT22;25188;51.958;5.842;2023-08-17T04:43:16;17.40;90.20
39021;DHT22;25188;51.958;5.842;2023-08-17T04:45:41;17.40;90.30
39021;DHT22;25188;51.958;5.842;2023-08-17T04:48:07;17.40;90.20
39021;DHT22;25188;51.958;5.842;2023-08-17T04:50:33;17.40;90.30
39021;DHT22;25188;51.958;5.842;2023-08-17T04:52:59;17.40;90.30
39021;DHT22;25188;51.958;5.842;2023-08-17T04:55:24;17.40;90.30
39021;DHT22;25188;51.958;5.842;2023-08-17T04:57:50;17.40;90.40
39021;DHT22;25188;51.958;5.842;2023-08-17T05:00:16;17.40;90.50
39021;DHT22;25188;51.958;5.842;2023-08-17T05:02:42;17.40;90.50
39021;DHT22;25188;51.958;5.842;2023-08-17T05:05:10;17.40;90.50
39021;DHT22;25188;51.958;5.842;2023-08-17T05:07:36;17.40;90.50
39021;DHT22;25188;51.958;5.842;2023-08-17T05:10:02;17.40;90.50
39021;DHT22;25188;51.958;5.842;2023-08-17T05:12:28;17.40;90.70
39021;DHT22;25188;51.958;5.842;2023-08-17T05:14:53;17.40;90.70
39021;DHT22;25188;51.958;5.842;2023-08-17T05:17:19;17.40;90.60
39021;DHT22;25188;51.958;5.842;2023-08-17T05:19:45;17.40;90.70
39021;DHT22;25188;51.958;5.842;2023-08-17T05:22:12;17.40;90.70
39021;DHT22;25188;51.958;5.842;2023-08-17T05:24:39;17.50;90.70
39021;DHT22;25188;51.958;5.842;2023-08-17T05:27:05;17.50;90.70
39021;DHT22;25188;51.958;5.842;2023-08-17T05:29:30;17.50;90.60
39021;DHT22;25188;51.958;5.842;2023-08-17T05:31:59;17.50;90.80
39021;DHT22;25188;51.958;5.842;2023-08-17T05:34:24;17.50;90.70
39021;DHT22;25188;51.958;5.842;2023-08-17T05:36:50;17.60;90.70
39021;DHT22;25188;51.958;5.842;2023-08-17T05:39:16;17.60;90.70
39021;DHT22;25188;51.958;5.842;2023-08-17T05:41:41;17.60;90.70
39021;DHT22;25188;51.958;5.842;2023-08-17T05:44:07;17.60;90.70
39021;DHT22;25188;51.958;5.842;2023-08-17T05:46:33;17.60;90.60
39021;DHT22;25188;51.958;5.842;2023-08-17T05:49:00;17.70;90.70
39021;DHT22;25188;51.958;5.842;2023-08-17T05:51:26;17.70;90.70
39021;DHT22;25188;51.958;5.842;2023-08-17T05:53:51;17.70;90.70
39021;DHT22;25188;51.958;5.842;2023-08-17T05:56:17;17.80;90.80
39021;DHT22;25188;51.958;5.842;2023-08-17T05:58:42;17.80;90.80
39021;DHT22;25188;51.958;5.842;2023-08-17T06:01:09;17.80;90.80
39021;DHT22;25188;51.958;5.842;2023-08-17T06:03:36;17.90;90.90
39021;DHT22;25188;51.958;5.842;2023-08-17T06:06:05;18.00;90.80
39021;DHT22;25188;51.958;5.842;2023-08-17T06:08:31;18.00;90.80
39021;DHT22;25188;51.958;5.842;2023-08-17T06:10:57;18.10;90.90
39021;DHT22;25188;51.958;5.842;2023-08-17T06:13:22;18.20;90.90
39021;DHT22;25188;51.958;5.842;2023-08-17T06:15:48;18.20;90.80
39021;DHT22;25188;51.958;5.842;2023-08-17T06:18:14;18.30;90.90
39021;DHT22;25188;51.958;5.842;2023-08-17T06:20:40;18.40;90.80
39021;DHT22;25188;51.958;5.842;2023-08-17T06:23:05;18.40;90.80
39021;DHT22;25188;51.958;5.842;2023-08-17T06:25:31;18.50;90.60
39021;DHT22;25188;51.958;5.842;2023-08-17T06:27:56;18.60;90.60
39021;DHT22;25188;51.958;5.842;2023-08-17T06:30:22;18.60;90.60
39021;DHT22;25188;51.958;5.842;2023-08-17T06:32:50;18.70;90.50
39021;DHT22;25188;51.958;5.842;2023-08-17T06:35:16;18.70;90.40
39021;DHT22;25188;51.958;5.842;2023-08-17T06:37:41;18.80;90.40
39021;DHT22;25188;51.958;5.842;2023-08-17T06:40:07;18.80;90.30
39021;DHT22;25188;51.958;5.842;2023-08-17T06:42:36;18.90;90.20
39021;DHT22;25188;51.958;5.842;2023-08-17T06:45:03;18.90;90.00
39021;DHT22;25188;51.958;5.842;2023-08-17T06:47:29;19.00;90.00
39021;DHT22;25188;51.958;5.842;2023-08-17T06:49:55;19.00;89.80
39021;DHT22;25188;51.958;5.842;2023-08-17T06:52:23;19.00;89.40
39021;DHT22;25188;51.958;5.842;2023-08-17T06:54:49;19.00;89.20
39021;DHT22;25188;51.958;5.842;2023-08-17T06:57:14;19.10;89.00
39021;DHT22;25188;51.958;5.842;2023-08-17T06:59:40;19.10;88.90
39021;DHT22;25188;51.958;5.842;2023-08-17T07:02:06;19.10;88.90
39021;DHT22;25188;51.958;5.842;2023-08-17T07:04:31;19.20;88.80
39021;DHT22;25188;51.958;5.842;2023-08-17T07:06:57;19.20;88.60
39021;DHT22;25188;51.958;5.842;2023-08-17T07:09:23;19.30;88.70
39021;DHT22;25188;51.958;5.842;2023-08-17T07:11:48;19.30;88.60
39021;DHT22;25188;51.958;5.842;2023-08-17T07:14:14;19.40;88.40
39021;DHT22;25188;51.958;5.842;2023-08-17T07:16:39;19.40;88.10
39021;DHT22;25188;51.958;5.842;2023-08-17T07:19:05;19.50;87.90
39021;DHT22;25188;51.958;5.842;2023-08-17T07:21:31;19.50;87.80
39021;DHT22;25188;51.958;5.842;2023-08-17T07:23:56;19.50;87.70
39021;DHT22;25188;51.958;5.842;2023-08-17T07:26:22;19.60;87.40
39021;DHT22;25188;51.958;5.842;2023-08-17T07:28:48;19.60;87.30
39021;DHT22;25188;51.958;5.842;2023-08-17T07:31:14;19.70;87.20
39021;DHT22;25188;51.958;5.842;2023-08-17T07:33:41;19.70;87.10
39021;DHT22;25188;51.958;5.842;2023-08-17T07:36:07;19.70;87.00
39021;DHT22;25188;51.958;5.842;2023-08-17T07:38:32;19.70;86.90
39021;DHT22;25188;51.958;5.842;2023-08-17T07:40:58;19.80;86.80
39021;DHT22;25188;51.958;5.842;2023-08-17T07:43:24;19.80;86.70
39021;DHT22;25188;51.958;5.842;2023-08-17T07:45:54;19.80;86.60
39021;DHT22;25188;51.958;5.842;2023-08-17T07:48:20;19.80;86.80
39021;DHT22;25188;51.958;5.842;2023-08-17T07:50:51;19.80;86.90
39021;DHT22;25188;51.958;5.842;2023-08-17T07:53:18;19.70;86.90
39021;DHT22;25188;51.958;5.842;2023-08-17T07:55:44;19.80;87.10
39021;DHT22;25188;51.958;5.842;2023-08-17T07:58:10;19.90;87.10
39021;DHT22;25188;51.958;5.842;2023-08-17T08:00:35;19.90;87.00
39021;DHT22;25188;51.958;5.842;2023-08-17T08:03:01;19.90;86.80
39021;DHT22;25188;51.958;5.842;2023-08-17T08:05:27;20.00;86.90
39021;DHT22;25188;51.958;5.842;2023-08-17T08:07:53;20.00;86.90
39021;DHT22;25188;51.958;5.842;2023-08-17T08:10:18;20.10;86.80
39021;DHT22;25188;51.958;5.842;2023-08-17T08:12:44;20.20;86.70
39021;DHT22;25188;51.958;5.842;2023-08-17T08:15:10;20.10;86.60
39021;DHT22;25188;51.958;5.842;2023-08-17T08:17:35;20.10;86.50
39021;DHT22;25188;51.958;5.842;2023-08-17T08:20:01;20.10;86.40
39021;DHT22;25188;51.958;5.842;2023-08-17T08:22:27;20.10;86.60
39021;DHT22;25188;51.958;5.842;2023-08-17T08:24:53;20.10;86.60
39021;DHT22;25188;51.958;5.842;2023-08-17T08:27:18;20.10;86.80
39021;DHT22;25188;51.958;5.842;2023-08-17T08:29:44;20.10;86.80
39021;DHT22;25188;51.958;5.842;2023-08-17T08:32:10;20.20;86.80
39021;DHT22;25188;51.958;5.842;2023-08-17T08:34:35;20.20;86.50
39021;DHT22;25188;51.958;5.842;2023-08-17T08:37:01;20.20;86.40
39021;DHT22;25188;51.958;5.842;2023-08-17T08:39:27;20.20;86.40
39021;DHT22;25188;51.958;5.842;2023-08-17T08:41:53;20.20;86.40
39021;DHT22;25188;51.958;5.842;2023-08-17T08:44:19;20.20;86.30
39021;DHT22;25188;51.958;5.842;2023-08-17T08:46:45;20.30;86.40
39021;DHT22;25188;51.958;5.842;2023-08-17T08:49:11;20.30;86.20
39021;DHT22;25188;51.958;5.842;2023-08-17T08:51:50;20.30;86.10
39021;DHT22;25188;51.958;5.842;2023-08-17T08:54:26;20.30;86.00
39021;DHT22;25188;51.958;5.842;2023-08-17T08:56:59;20.30;85.90
39021;DHT22;25188;51.958;5.842;2023-08-17T08:59:27;20.40;85.90
39021;DHT22;25188;51.958;5.842;2023-08-17T09:01:55;20.30;85.80
39021;DHT22;25188;51.958;5.842;2023-08-17T09:04:22;20.40;85.90
39021;DHT22;25188;51.958;5.842;2023-08-17T09:06:50;20.40;85.80
39021;DHT22;25188;51.958;5.842;2023-08-17T09:09:16;20.40;85.80
39021;DHT22;25188;51.958;5.842;2023-08-17T09:11:43;20.40;85.90
39021;DHT22;25188;51.958;5.842;2023-08-17T09:14:09;20.50;85.90
39021;DHT22;25188;51.958;5.842;2023-08-17T09:16:36;20.50;85.80
39021;DHT22;25188;51.958;5.842;2023-08-17T09:19:01;20.50;85.80
39021;DHT22;25188;51.958;5.842;2023-08-17T09:21:31;20.50;86.30
39021;DHT22;25188;51.958;5.842;2023-08-17T09:23:57;20.50;85.70
39021;DHT22;25188;51.958;5.842;2023-08-17T09:26:23;20.50;85.60
39021;DHT22;25188;51.958;5.842;2023-08-17T09:28:50;20.60;85.60
39021;DHT22;25188;51.958;5.842;2023-08-17T09:31:15;20.60;85.60
39021;DHT22;25188;51.958;5.842;2023-08-17T09:33:41;20.50;85.50
39021;DHT22;25188;51.958;5.842;2023-08-17T09:36:10;20.60;85.70
39021;DHT22;25188;51.958;5.842;2023-08-17T09:38:37;20.70;85.80
39021;DHT22;25188;51.958;5.842;2023-08-17T09:41:04;20.70;85.80
39021;DHT22;25188;51.958;5.842;2023-08-17T09:43:31;20.80;85.80
39021;DHT22;25188;51.958;5.842;2023-08-17T09:45:59;20.80;85.70
39021;DHT22;25188;51.958;5.842;2023-08-17T09:48:27;20.90;85.70
39021;DHT22;25188;51.958;5.842;2023-08-17T09:50:55;20.90;85.50
39021;DHT22;25188;51.958;5.842;2023-08-17T09:53:21;21.00;85.50
39021;DHT22;25188;51.958;5.842;2023-08-17T09:55:47;21.10;85.40
39021;DHT22;25188;51.958;5.842;2023-08-17T09:58:14;21.10;85.30
39021;DHT22;25188;51.958;5.842;2023-08-17T10:00:50;21.20;85.30
39021;DHT22;25188;51.958;5.842;2023-08-17T10:03:17;21.30;84.80
39021;DHT22;25188;51.958;5.842;2023-08-17T10:05:46;21.30;84.00
39021;DHT22;25188;51.958;5.842;2023-08-17T10:08:19;21.30;83.90
39021;DHT22;25188;51.958;5.842;2023-08-17T10:10:45;21.40;84.00
39021;DHT22;25188;51.958;5.842;2023-08-17T10:16:48;21.50;83.70
39021;DHT22;25188;51.958;5.842;2023-08-17T10:19:18;21.50;83.70
39021;DHT22;25188;51.958;5.842;2023-08-17T10:22:02;21.50;83.70
39021;DHT22;25188;51.958;5.842;2023-08-17T10:24:30;21.50;83.80
39021;DHT22;25188;51.958;5.842;2023-08-17T10:26:59;21.50;83.70
39021;DHT22;25188;51.958;5.842;2023-08-17T10:29:25;21.50;83.60
39021;DHT22;25188;51.958;5.842;2023-08-17T10:31:52;21.60;83.60
39021;DHT22;25188;51.958;5.842;2023-08-17T10:34:18;21.50;83.40
39021;DHT22;25188;51.958;5.842;2023-08-17T10:36:45;21.60;83.50
39021;DHT22;25188;51.958;5.842;2023-08-17T10:39:20;21.60;83.50
39021;DHT22;25188;51.958;5.842;2023-08-17T10:41:47;21.60;83.30
39021;DHT22;25188;51.958;5.842;2023-08-17T10:44:13;21.60;83.20
39021;DHT22;25188;51.958;5.842;2023-08-17T10:46:39;21.60;83.10
39021;DHT22;25188;51.958;5.842;2023-08-17T10:49:24;21.60;83.00
39021;DHT22;25188;51.958;5.842;2023-08-17T10:52:07;21.60;83.10
39021;DHT22;25188;51.958;5.842;2023-08-17T10:54:40;21.70;83.20
39021;DHT22;25188;51.958;5.842;2023-08-17T11:00:22;21.90;82.90
39021;DHT22;25188;51.958;5.842;2023-08-17T11:03:03;22.00;82.90
39021;DHT22;25188;51.958;5.842;2023-08-17T11:05:46;22.10;82.80
39021;DHT22;25188;51.958;5.842;2023-08-17T11:08:29;22.20;82.40
39021;DHT22;25188;51.958;5.842;2023-08-17T11:11:14;22.20;81.60
39021;DHT22;25188;51.958;5.842;2023-08-17T11:13:42;22.20;81.10
39021;DHT22;25188;51.958;5.842;2023-08-17T11:16:09;22.10;81.20
39021;DHT22;25188;51.958;5.842;2023-08-17T11:18:35;22.10;81.40
39021;DHT22;25188;51.958;5.842;2023-08-17T11:21:05;22.10;81.70
39021;DHT22;25188;51.958;5.842;2023-08-17T11:23:34;22.10;81.70
39021;DHT22;25188;51.958;5.842;2023-08-17T11:26:00;22.20;81.80
39021;DHT22;25188;51.958;5.842;2023-08-17T11:28:26;22.30;81.80
39021;DHT22;25188;51.958;5.842;2023-08-17T11:30:59;22.20;81.60
39021;DHT22;25188;51.958;5.842;2023-08-17T11:33:26;22.30;81.60
39021;DHT22;25188;51.958;5.842;2023-08-17T11:35:57;22.30;81.60
39021;DHT22;25188;51.958;5.842;2023-08-17T11:38:23;22.30;81.60
39021;DHT22;25188;51.958;5.842;2023-08-17T11:40:52;22.30;81.60
39021;DHT22;25188;51.958;5.842;2023-08-17T11:43:18;22.40;81.40
39021;DHT22;25188;51.958;5.842;2023-08-17T11:45:46;22.40;81.30
39021;DHT22;25188;51.958;5.842;2023-08-17T11:48:11;22.40;81.00
39021;DHT22;25188;51.958;5.842;2023-08-17T11:50:38;22.40;80.80
39021;DHT22;25188;51.958;5.842;2023-08-17T11:53:05;22.30;80.60
39021;DHT22;25188;51.958;5.842;2023-08-17T11:55:30;22.30;80.40
39021;DHT22;25188;51.958;5.842;2023-08-17T11:57:56;22.30;80.50
39021;DHT22;25188;51.958;5.842;2023-08-17T12:00:22;22.20;80.50
39021;DHT22;25188;51.958;5.842;2023-08-17T12:02:52;22.20;80.80
39021;DHT22;25188;51.958;5.842;2023-08-17T12:05:21;22.20;81.00
39021;DHT22;25188;51.958;5.842;2023-08-17T12:07:49;22.20;81.20
39021;DHT22;25188;51.958;5.842;2023-08-17T12:10:15;22.20;81.20
39021;DHT22;25188;51.958;5.842;2023-08-17T12:12:40;22.30;81.30
39021;DHT22;25188;51.958;5.842;2023-08-17T12:15:06;22.30;81.30
39021;DHT22;25188;51.958;5.842;2023-08-17T12:17:32;22.30;81.30
39021;DHT22;25188;51.958;5.842;2023-08-17T12:19:59;22.30;81.40
39021;DHT22;25188;51.958;5.842;2023-08-17T12:22:26;22.30;81.40
39021;DHT22;25188;51.958;5.842;2023-08-17T12:24:52;22.30;81.40
39021;DHT22;25188;51.958;5.842;2023-08-17T12:27:18;22.30;81.60
39021;DHT22;25188;51.958;5.842;2023-08-17T12:29:51;22.20;81.50
39021;DHT22;25188;51.958;5.842;2023-08-17T12:32:17;22.30;81.70
39021;DHT22;25188;51.958;5.842;2023-08-17T12:34:44;22.30;81.70
39021;DHT22;25188;51.958;5.842;2023-08-17T12:37:10;22.30;82.30
39021;DHT22;25188;51.958;5.842;2023-08-17T12:39:37;22.40;81.60
39021;DHT22;25188;51.958;5.842;2023-08-17T12:42:03;22.40;81.50
39021;DHT22;25188;51.958;5.842;2023-08-17T12:44:29;22.40;81.50
39021;DHT22;25188;51.958;5.842;2023-08-17T12:46:54;22.40;81.50
39021;DHT22;25188;51.958;5.842;2023-08-17T12:49:20;22.40;81.40
39021;DHT22;25188;51.958;5.842;2023-08-17T12:51:46;22.40;81.40
39021;DHT22;25188;51.958;5.842;2023-08-17T12:54:11;22.40;81.50
39021;DHT22;25188;51.958;5.842;2023-08-17T12:56:37;22.40;81.60
39021;DHT22;25188;51.958;5.842;2023-08-17T12:59:03;22.40;81.60
39021;DHT22;25188;51.958;5.842;2023-08-17T13:01:28;22.40;81.70
39021;DHT22;25188;51.958;5.842;2023-08-17T13:03:54;22.40;81.70
39021;DHT22;25188;51.958;5.842;2023-08-17T13:06:20;22.40;81.80
39021;DHT22;25188;51.958;5.842;2023-08-17T13:08:45;22.40;81.80
39021;DHT22;25188;51.958;5.842;2023-08-17T13:11:12;22.50;81.80
39021;DHT22;25188;51.958;5.842;2023-08-17T13:13:37;22.50;81.80
39021;DHT22;25188;51.958;5.842;2023-08-17T13:16:03;22.50;81.60
39021;DHT22;25188;51.958;5.842;2023-08-17T13:18:29;22.50;81.50
39021;DHT22;25188;51.958;5.842;2023-08-17T13:20:55;22.50;81.50
39021;DHT22;25188;51.958;5.842;2023-08-17T13:23:20;22.50;82.00
39021;DHT22;25188;51.958;5.842;2023-08-17T13:25:46;22.40;81.40
39021;DHT22;25188;51.958;5.842;2023-08-17T13:28:12;22.40;81.40
39021;DHT22;25188;51.958;5.842;2023-08-17T13:30:40;22.40;81.50
39021;DHT22;25188;51.958;5.842;2023-08-17T13:33:06;22.30;81.70
39021;DHT22;25188;51.958;5.842;2023-08-17T13:35:33;22.30;81.70
39021;DHT22;25188;51.958;5.842;2023-08-17T13:37:59;22.20;81.80
39021;DHT22;25188;51.958;5.842;2023-08-17T13:40:25;22.20;82.00
39021;DHT22;25188;51.958;5.842;2023-08-17T13:42:51;22.10;82.20
39021;DHT22;25188;51.958;5.842;2023-08-17T13:45:17;22.20;82.50
39021;DHT22;25188;51.958;5.842;2023-08-17T13:47:42;22.20;82.40
39021;DHT22;25188;51.958;5.842;2023-08-17T13:50:08;22.20;82.40
39021;DHT22;25188;51.958;5.842;2023-08-17T13:52:34;22.20;82.60
39021;DHT22;25188;51.958;5.842;2023-08-17T13:55:00;22.10;82.50
39021;DHT22;25188;51.958;5.842;2023-08-17T13:57:25;22.10;82.60
39021;DHT22;25188;51.958;5.842;2023-08-17T13:59:51;22.10;82.70
39021;DHT22;25188;51.958;5.842;2023-08-17T14:02:18;22.10;83.40
39021;DHT22;25188;51.958;5.842;2023-08-17T14:04:44;22.00;82.90
39021;DHT22;25188;51.958;5.842;2023-08-17T14:07:09;22.00;83.00
39021;DHT22;25188;51.958;5.842;2023-08-17T14:09:36;22.00;83.80
39021;DHT22;25188;51.958;5.842;2023-08-17T14:12:02;22.00;83.10
39021;DHT22;25188;51.958;5.842;2023-08-17T14:14:30;22.00;83.30
39021;DHT22;25188;51.958;5.842;2023-08-17T14:16:56;22.00;83.40
39021;DHT22;25188;51.958;5.842;2023-08-17T14:19:22;22.10;83.40
39021;DHT22;25188;51.958;5.842;2023-08-17T14:21:48;22.00;83.40
39021;DHT22;25188;51.958;5.842;2023-08-17T14:24:14;22.00;83.50
39021;DHT22;25188;51.958;5.842;2023-08-17T14:26:40;22.00;83.50
39021;DHT22;25188;51.958;5.842;2023-08-17T14:29:05;22.00;83.60
39021;DHT22;25188;51.958;5.842;2023-08-17T14:31:31;22.00;83.80
39021;DHT22;25188;51.958;5.842;2023-08-17T14:33:57;22.00;83.90
39021;DHT22;25188;51.958;5.842;2023-08-17T14:36:22;22.10;84.00
39021;DHT22;25188;51.958;5.842;2023-08-17T14:38:48;22.10;84.10
39021;DHT22;25188;51.958;5.842;2023-08-17T14:41:13;22.10;84.00
39021;DHT22;25188;51.958;5.842;2023-08-17T14:43:39;22.20;84.10
39021;DHT22;25188;51.958;5.842;2023-08-17T14:46:05;22.20;84.10
39021;DHT22;25188;51.958;5.842;2023-08-17T14:48:30;22.20;84.10
39021;DHT22;25188;51.958;5.842;2023-08-17T14:50:56;22.20;84.10
39021;DHT22;25188;51.958;5.842;2023-08-17T14:53:22;22.30;84.10
39021;DHT22;25188;51.958;5.842;2023-08-17T14:55:47;22.30;84.10
39021;DHT22;25188;51.958;5.842;2023-08-17T14:58:13;22.30;84.10
39021;DHT22;25188;51.958;5.842;2023-08-17T15:00:39;22.30;84.00
39021;DHT22;25188;51.958;5.842;2023-08-17T15:03:05;22.30;84.00
39021;DHT22;25188;51.958;5.842;2023-08-17T15:05:30;22.30;83.90
39021;DHT22;25188;51.958;5.842;2023-08-17T15:07:57;22.20;83.90
39021;DHT22;25188;51.958;5.842;2023-08-17T15:10:22;22.20;84.10
39021;DHT22;25188;51.958;5.842;2023-08-17T15:12:48;22.20;84.10
39021;DHT22;25188;51.958;5.842;2023-08-17T15:15:14;22.20;84.20
39021;DHT22;25188;51.958;5.842;2023-08-17T15:17:40;22.10;84.20
39021;DHT22;25188;51.958;5.842;2023-08-17T15:20:06;22.10;84.30
39021;DHT22;25188;51.958;5.842;2023-08-17T15:22:32;22.10;84.30
39021;DHT22;25188;51.958;5.842;2023-08-17T15:24:58;22.20;84.30
39021;DHT22;25188;51.958;5.842;2023-08-17T15:27:23;22.10;84.30
39021;DHT22;25188;51.958;5.842;2023-08-17T15:29:49;22.10;84.40
39021;DHT22;25188;51.958;5.842;2023-08-17T15:32:14;22.20;84.50